Date,TemperatureHighF,TemperatureAvgF,TemperatureLowF,DewpointHighF,DewpointAvgF,DewpointLowF,HumidityHigh,HumidityAvg,HumidityLow,PressureMaxIn,PressureMinIn,WindSpeedMaxMPH,WindSpeedAvgMPH,GustSpeedMaxMPH,PrecipitationSumIn
2013-3-1,28,25,24,22,18,15,80,75,67,29.50,29.35,22,8,22,0.00
2013-3-2,31,23,14,16,11,5,73,59,43,29.50,29.44,13,6,13,0.00
2013-3-3,34,21,9,10,6,1,69,54,32,29.44,29.38,7,3,7,0.00
2013-3-4,40,26,11,22,14,0,78,62,43,29.41,29.32,11,2,11,0.00
2013-3-5,32,30,28,30,26,19,98,83,58,29.32,29.17,20,4,20,0.00
2013-3-6,35,30,26,26,23,21,84,75,63,29.59,29.29,17,7,17,0.00
2013-3-7,39,30,22,23,18,13,83,61,39,29.71,29.56,8,3,8,0.00
2013-3-8,41,31,18,28,21,14,90,69,49,29.76,29.59,16,3,16,0.00
2013-3-9,39,35,32,32,28,23,85,73,65,29.59,29.14,24,6,24,0.00
2013-3-10,46,40,35,45,39,31,98,97,82,29.17,28.94,8,2,10,0.00
2013-3-11,45,37,32,45,36,26,98,96,78,29.06,28.85,12,3,12,0.00
2013-3-12,35,30,26,29,23,14,93,74,43,29.29,29.06,15,3,15,0.00
2013-3-13,33,26,20,18,8,3,74,47,31,29.59,29.29,17,6,17,0.00
2013-3-14,37,29,20,25,14,6,83,55,35,29.59,29.38,8,2,8,0.00
2013-3-15,38,32,30,33,29,25,98,86,70,29.38,29.12,14,2,14,0.00
2013-3-16,32,29,26,32,25,16,98,85,59,29.44,29.09,14,4,14,0.00
2013-3-17,33,28,23,21,14,7,69,55,43,29.53,29.35,14,4,14,0.00
2013-3-18,33,28,20,31,18,6,93,68,54,29.35,28.91,22,8,22,0.00
2013-3-19,28,22,14,8,6,3,66,49,41,29.32,29.03,21,9,21,0.00
2013-3-20,22,17,12,4,-1,-4,50,46,38,29.35,29.29,18,7,18,0.00
2013-3-21,31,20,11,9,3,-5,57,46,37,29.32,29.29,15,5,15,0.00
2013-3-22,37,26,16,15,10,4,65,51,33,29.41,29.29,10,3,10,0.00
2013-3-23,44,30,23,25,18,12,74,60,33,29.44,29.35,10,2,10,0.00
2013-3-24,36,33,31,27,23,18,79,67,57,29.35,29.03,24,6,24,0.00
2013-3-25,35,33,30,25,21,16,75,61,50,29.38,29.03,26,8,26,0.00
2013-3-26,42,35,30,24,22,20,70,60,43,29.53,29.38,14,5,14,0.00
2013-3-27,43,36,31,24,18,12,66,49,31,29.62,29.53,11,4,11,0.00
2013-3-28,50,37,29,24,19,15,62,48,31,29.62,29.59,8,3,8,0.00
2013-3-29,53,38,30,22,18,15,60,46,26,29.62,29.56,9,2,9,0.00
2013-3-30,60,45,30,35,25,18,64,47,30,29.56,29.14,18,4,18,0.00
2013-3-31,55,44,34,42,32,21,94,67,31,29.20,29.03,20,6,20,0.00